createdAt,value
2022-07-31T00:01:51.664Z,19.44
2022-07-31T00:06:51.589Z,19.35
2022-07-31T00:11:51.521Z,19.34
2022-07-31T00:16:51.465Z,19.23
2022-07-31T00:21:51.404Z,19.16
2022-07-31T00:26:52.698Z,19.09
2022-07-31T00:31:51.266Z,19.04
2022-07-31T00:36:51.208Z,18.98
2022-07-31T00:41:51.141Z,18.93
2022-07-31T00:46:51.068Z,18.86
2022-07-31T00:51:51.029Z,18.83
2022-07-31T00:56:50.940Z,18.71
2022-07-31T01:01:50.887Z,18.64
2022-07-31T01:06:50.826Z,18.61
2022-07-31T01:11:50.947Z,18.58
2022-07-31T01:16:50.702Z,18.60
2022-07-31T01:21:50.629Z,18.58
2022-07-31T01:26:50.652Z,18.51
2022-07-31T01:31:50.643Z,18.52
2022-07-31T01:36:50.478Z,18.49
2022-07-31T01:41:50.430Z,18.49
2022-07-31T01:46:50.327Z,18.45
2022-07-31T01:51:50.277Z,18.43
2022-07-31T01:56:50.204Z,18.43
2022-07-31T02:01:50.766Z,18.41
2022-07-31T02:06:50.077Z,18.28
2022-07-31T02:11:54.676Z,18.23
2022-07-31T02:16:50.943Z,18.18
2022-07-31T02:21:49.883Z,18.13
2022-07-31T02:26:49.831Z,18.12
2022-07-31T02:32:03.141Z,18.02
2022-07-31T02:36:50.704Z,17.91
2022-07-31T02:41:49.625Z,17.88
2022-07-31T02:46:49.575Z,17.83
2022-07-31T02:51:49.523Z,17.81
2022-07-31T02:56:49.447Z,17.79
2022-07-31T03:01:49.416Z,17.76
2022-07-31T03:06:49.319Z,17.75
2022-07-31T03:11:49.294Z,17.57
2022-07-31T03:16:49.203Z,17.56
2022-07-31T03:21:49.140Z,17.50
2022-07-31T03:26:49.074Z,17.47
2022-07-31T03:31:49.030Z,17.39
2022-07-31T03:36:48.951Z,17.28
2022-07-31T03:41:48.932Z,17.31
2022-07-31T03:46:48.820Z,17.28
2022-07-31T03:51:48.770Z,17.22
2022-07-31T03:56:48.855Z,17.25
2022-07-31T04:01:56.663Z,17.16
2022-07-31T04:06:49.547Z,17.24
2022-07-31T04:11:48.494Z,17.19
2022-07-31T04:16:48.416Z,17.16
2022-07-31T04:21:48.368Z,17.17
2022-07-31T04:26:48.299Z,17.17
2022-07-31T04:31:48.229Z,17.22
2022-07-31T04:36:48.161Z,17.17
2022-07-31T04:41:48.121Z,17.28
2022-07-31T04:46:48.032Z,17.35
2022-07-31T04:51:48.001Z,17.49
2022-07-31T04:56:47.898Z,17.57
2022-07-31T05:01:47.927Z,17.69
2022-07-31T05:06:47.783Z,17.78
2022-07-31T05:11:47.727Z,17.84
2022-07-31T05:16:47.665Z,17.97
2022-07-31T05:22:03.719Z,18.05
2022-07-31T05:26:48.526Z,18.26
2022-07-31T05:31:59.872Z,18.45
2022-07-31T05:36:48.410Z,18.74
2022-07-31T05:41:47.754Z,18.94
2022-07-31T05:46:47.332Z,19.30
2022-07-31T05:51:47.298Z,19.67
2022-07-31T05:56:47.171Z,20.11
2022-07-31T06:01:47.187Z,20.61
2022-07-31T06:06:47.032Z,20.83
2022-07-31T06:11:46.979Z,20.93
2022-07-31T06:16:46.912Z,21.00
2022-07-31T06:21:46.880Z,21.03
2022-07-31T06:26:46.781Z,21.14
2022-07-31T06:31:46.711Z,21.29
2022-07-31T06:36:46.661Z,21.40
2022-07-31T06:41:46.580Z,21.47
2022-07-31T06:46:49.097Z,21.53
2022-07-31T06:51:46.462Z,21.58
2022-07-31T06:56:46.415Z,21.65
2022-07-31T07:01:46.384Z,21.67
2022-07-31T07:06:46.275Z,21.75
2022-07-31T07:11:46.229Z,21.84
2022-07-31T07:16:46.160Z,21.93
2022-07-31T07:21:46.209Z,21.98
2022-07-31T07:26:46.167Z,22.04
2022-07-31T07:31:46.010Z,22.16
2022-07-31T07:36:45.944Z,22.27
2022-07-31T07:41:45.864Z,22.48
2022-07-31T07:46:45.793Z,22.62
2022-07-31T07:51:58.929Z,22.91
2022-07-31T07:56:46.647Z,23.17
2022-07-31T08:01:45.597Z,23.46
2022-07-31T08:06:45.533Z,23.70
2022-07-31T08:11:45.482Z,23.94
2022-07-31T08:16:45.413Z,24.10
2022-07-31T08:21:45.360Z,24.28
2022-07-31T08:26:45.315Z,24.59
2022-07-31T08:31:49.566Z,24.84
2022-07-31T08:36:45.149Z,25.12
2022-07-31T08:41:45.105Z,25.77
2022-07-31T08:46:45.046Z,26.23
2022-07-31T08:51:51.268Z,26.97
2022-07-31T08:56:45.901Z,27.72
2022-07-31T09:01:44.845Z,28.24
2022-07-31T09:06:44.792Z,28.83
2022-07-31T09:11:44.744Z,29.24
2022-07-31T09:16:44.659Z,29.59
2022-07-31T09:21:44.607Z,29.99
2022-07-31T09:26:44.548Z,30.28
2022-07-31T09:31:44.481Z,30.67
2022-07-31T09:36:44.414Z,31.22
2022-07-31T09:41:56.282Z,31.79
2022-07-31T09:46:45.442Z,32.08
2022-07-31T09:51:44.264Z,32.31
2022-07-31T09:56:44.185Z,32.50
2022-07-31T10:01:44.143Z,32.72
2022-07-31T10:06:44.079Z,32.72
2022-07-31T10:11:44.001Z,32.79
2022-07-31T10:16:43.954Z,32.94
2022-07-31T10:21:43.933Z,33.09
2022-07-31T10:27:00.299Z,33.29
2022-07-31T10:31:44.788Z,33.36
2022-07-31T10:36:43.728Z,33.07
2022-07-31T10:41:44.022Z,33.29
2022-07-31T10:46:43.627Z,33.67
2022-07-31T10:51:43.573Z,34.11
2022-07-31T10:56:43.500Z,34.56
2022-07-31T11:01:43.501Z,34.98
2022-07-31T11:06:44.417Z,35.53
2022-07-31T11:11:43.325Z,35.72
2022-07-31T11:16:43.379Z,35.98
2022-07-31T11:21:43.190Z,35.79
2022-07-31T11:26:43.237Z,35.79
2022-07-31T11:31:43.168Z,36.06
2022-07-31T11:36:43.181Z,36.11
2022-07-31T11:41:44.436Z,36.32
2022-07-31T11:46:42.931Z,36.45
2022-07-31T11:51:42.871Z,35.94
2022-07-31T11:56:42.793Z,36.03
2022-07-31T12:01:42.766Z,36.22
2022-07-31T12:06:42.662Z,36.06
2022-07-31T12:11:42.648Z,36.23
2022-07-31T12:16:42.551Z,36.19
2022-07-31T12:21:42.522Z,35.35
2022-07-31T12:26:42.461Z,34.78
2022-07-31T12:31:42.390Z,34.15
2022-07-31T12:36:42.304Z,34.28
2022-07-31T12:41:42.282Z,34.52
2022-07-31T12:46:42.206Z,34.99
2022-07-31T12:51:45.111Z,34.86
2022-07-31T12:56:42.134Z,34.32
2022-07-31T13:01:42.151Z,34.03
2022-07-31T13:06:41.980Z,33.76
2022-07-31T13:11:45.983Z,33.74
2022-07-31T13:16:42.859Z,33.60
2022-07-31T13:21:48.850Z,33.26
2022-07-31T13:26:42.729Z,33.07
2022-07-31T13:31:41.654Z,33.26
2022-07-31T13:36:41.636Z,33.44
2022-07-31T13:41:41.530Z,33.51
2022-07-31T13:46:41.508Z,34.04
2022-07-31T13:51:41.448Z,34.28
2022-07-31T13:56:42.814Z,34.55
2022-07-31T14:02:04.573Z,34.83
2022-07-31T14:06:42.269Z,35.02
2022-07-31T14:11:41.180Z,34.59
2022-07-31T14:16:41.176Z,33.97
2022-07-31T14:21:41.076Z,33.74
2022-07-31T14:26:42.061Z,33.79
2022-07-31T14:31:40.947Z,33.79
2022-07-31T14:36:40.937Z,33.98
2022-07-31T14:41:40.823Z,33.58
2022-07-31T14:46:40.837Z,33.29
2022-07-31T14:51:40.724Z,33.04
2022-07-31T14:57:00.180Z,32.76
2022-07-31T15:01:41.736Z,32.48
2022-07-31T15:06:56.164Z,32.24
2022-07-31T15:11:59.026Z,32.04
2022-07-31T15:16:41.410Z,31.90
2022-07-31T15:21:40.370Z,31.75
2022-07-31T15:26:40.286Z,31.54
2022-07-31T15:31:40.248Z,31.57
2022-07-31T15:36:40.167Z,31.46
2022-07-31T15:41:40.127Z,31.23
2022-07-31T15:46:40.057Z,31.04
2022-07-31T15:51:40.002Z,30.88
2022-07-31T15:56:39.980Z,30.71
2022-07-31T16:01:39.963Z,30.55
2022-07-31T16:06:39.824Z,30.39
2022-07-31T16:12:03.891Z,30.28
2022-07-31T16:16:45.526Z,30.15
2022-07-31T16:21:40.615Z,30.07
2022-07-31T16:26:39.582Z,29.86
2022-07-31T16:31:39.498Z,29.63
2022-07-31T16:36:39.461Z,29.47
2022-07-31T16:41:39.373Z,29.31
2022-07-31T16:46:40.337Z,29.22
2022-07-31T16:51:39.252Z,29.17
2022-07-31T16:56:39.212Z,29.10
2022-07-31T17:01:57.110Z,28.91
2022-07-31T17:06:40.152Z,28.79
2022-07-31T17:11:38.994Z,28.66
2022-07-31T17:16:42.252Z,28.64
2022-07-31T17:21:43.868Z,28.57
2022-07-31T17:26:38.820Z,28.52
2022-07-31T17:31:38.800Z,28.46
2022-07-31T17:36:38.715Z,28.42
2022-07-31T17:41:38.674Z,28.30
2022-07-31T17:46:48.155Z,28.16
2022-07-31T17:51:39.540Z,28.01
2022-07-31T17:56:39.456Z,27.91
2022-07-31T18:01:38.438Z,27.78
2022-07-31T18:06:38.344Z,27.61
2022-07-31T18:11:38.349Z,27.49
2022-07-31T18:16:38.226Z,27.38
2022-07-31T18:21:38.200Z,27.23
2022-07-31T18:26:38.083Z,27.13
2022-07-31T18:31:38.040Z,26.98
2022-07-31T18:36:37.979Z,26.83
2022-07-31T18:41:37.917Z,26.71
2022-07-31T18:46:37.832Z,26.60
2022-07-31T18:51:37.868Z,26.52
2022-07-31T18:56:37.717Z,26.42
2022-07-31T19:01:37.750Z,26.30
2022-07-31T19:06:37.609Z,26.20
2022-07-31T19:11:37.572Z,26.10
2022-07-31T19:16:37.471Z,26.03
2022-07-31T19:21:41.964Z,25.93
2022-07-31T19:26:38.415Z,25.86
2022-07-31T19:31:37.286Z,25.75
2022-07-31T19:36:37.282Z,25.66
2022-07-31T19:41:37.232Z,25.58
2022-07-31T19:46:37.133Z,25.49
2022-07-31T19:51:37.059Z,25.46
2022-07-31T19:56:37.011Z,25.36
2022-07-31T20:01:36.951Z,25.27
2022-07-31T20:06:36.877Z,25.21
2022-07-31T20:11:36.772Z,25.22
2022-07-31T20:16:36.717Z,25.15
2022-07-31T20:21:36.637Z,25.09
2022-07-31T20:26:36.590Z,25.04
2022-07-31T20:31:36.536Z,25.04
2022-07-31T20:36:36.476Z,24.97
2022-07-31T20:41:36.408Z,24.91
2022-07-31T20:46:36.341Z,24.90
2022-07-31T20:51:36.270Z,24.84
2022-07-31T20:56:36.213Z,24.79
2022-07-31T21:01:36.190Z,24.75
2022-07-31T21:06:36.114Z,24.70
2022-07-31T21:11:36.113Z,24.63
2022-07-31T21:16:35.996Z,24.58
2022-07-31T21:21:35.927Z,24.52
2022-07-31T21:26:35.869Z,24.48
2022-07-31T21:31:35.801Z,24.43
2022-07-31T21:36:36.720Z,24.40
2022-07-31T21:41:35.689Z,24.36
2022-07-31T21:46:35.602Z,24.36
2022-07-31T21:51:35.540Z,24.26
2022-07-31T21:56:35.465Z,24.29
2022-07-31T22:01:35.445Z,24.23
2022-07-31T22:06:35.347Z,24.25
2022-07-31T22:11:35.269Z,24.22
2022-07-31T22:16:35.218Z,24.16
2022-07-31T22:21:35.151Z,24.10
2022-07-31T22:26:35.090Z,24.08
2022-07-31T22:31:35.013Z,23.98
2022-07-31T22:36:34.964Z,23.97
2022-07-31T22:41:34.996Z,23.88
2022-07-31T22:46:34.971Z,23.84
2022-07-31T22:51:38.399Z,23.81
2022-07-31T22:56:34.736Z,23.76
2022-07-31T23:01:34.681Z,23.71
2022-07-31T23:06:34.630Z,23.66
2022-07-31T23:11:34.554Z,23.63
2022-07-31T23:16:34.462Z,23.63
2022-07-31T23:21:34.417Z,23.64
2022-07-31T23:26:34.351Z,23.59
2022-07-31T23:31:34.365Z,23.49
2022-07-31T23:36:34.220Z,23.41
2022-07-31T23:41:34.157Z,23.31
2022-07-31T23:46:34.194Z,23.21
2022-07-31T23:51:34.027Z,23.11
2022-07-31T23:56:33.997Z,23.04
